Terminal Aerodrome Forecast
Issued by NWS Omaha/Valley, NE

Home | Current Version | Previous Version | Graphics & Text | Print | Product List | Glossary On
Versions: 1 2 3 4 5 6 7 8 9 10 11 12 13 14 15
000
FTUS43 KOAX 272331
TAFOFK
TAF
KOFK 272331Z 2800/2824 16017G25KT P6SM SCT040 BKN120
     FM280400 17016G24KT P6SM VCTS OVC050CB
      TEMPO 2805/2808 VRB25G40KT 2SM TSRA OVC025CB
     FM281100 20010KT P6SM BKN150
     FM281600 28012KT P6SM FEW200=

USA.gov is the U.S. government's official web portal to all federal, state and local government web resources and services.